Time;durP1;ratioP1;P1;durP2;ratioP2;P2;SDS_P1;SDS_P2;PMS_P1;PMS_P2;Temp;Humidity;BMP_temperature;BMP_pressure;BME280_temperature;BME280_humidity;BME280_pressure;Samples;Min_cycle;Max_cycle;Signal;HPM_P1;HPM_P2
2021/04/11 00:01:32;;;;;;;1.50;1.00;;;11.80;99.90;;;;;;5043386;28;20567;-58
2021/04/11 00:03:58;;;;;;;2.42;0.98;;;11.70;99.90;;;;;;5043650;28;20031;-59
2021/04/11 00:06:24;;;;;;;1.70;1.00;;;11.70;99.90;;;;;;5042970;28;20572;-59
2021/04/11 00:08:50;;;;;;;1.40;0.88;;;11.60;99.90;;;;;;5043194;28;20021;-58
2021/04/11 00:11:18;;;;;;;1.48;0.90;;;11.70;99.90;;;;;;5044210;28;20028;-59
2021/04/11 00:13:44;;;;;;;2.38;0.82;;;11.80;99.90;;;;;;5043933;28;20041;-58
2021/04/11 00:16:10;;;;;;;1.52;0.82;;;11.70;99.90;;;;;;5043779;28;20021;-58
2021/04/11 00:18:36;;;;;;;1.15;0.90;;;11.90;99.90;;;;;;5043016;28;20056;-58
2021/04/11 00:21:05;;;;;;;2.05;0.82;;;11.90;99.90;;;;;;5043191;28;20029;-58
2021/04/11 00:23:32;;;;;;;1.00;0.65;;;11.90;99.90;;;;;;5043125;28;20117;-59
2021/04/11 00:25:59;;;;;;;0.70;0.55;;;11.90;99.90;;;;;;5043279;28;20029;-59
2021/04/11 00:28:24;;;;;;;2.55;0.80;;;11.90;99.90;;;;;;5043872;28;20430;-59
2021/04/11 00:30:50;;;;;;;2.28;1.00;;;11.80;99.90;;;;;;5045827;28;20032;-58
2021/04/11 00:33:35;;;;;;;2.75;1.08;;;11.80;99.90;;;;;;5047993;28;20130;-59
2021/04/11 00:36:08;;;;;;;;;;;11.80;99.90;;;;;;5047368;28;20061;-58
2021/04/11 00:38:35;;;;;;;1.77;0.88;;;11.80;99.90;;;;;;5050056;28;19926;-59
2021/04/11 00:41:25;;;;;;;2.67;0.90;;;11.70;99.90;;;;;;5046981;28;20040;-59
2021/04/11 00:43:52;;;;;;;1.30;0.90;;;11.50;99.90;;;;;;5047877;28;20017;-59
2021/04/11 00:46:40;;;;;;;1.52;0.80;;;11.50;99.90;;;;;;5048035;28;20341;-58
2021/04/11 00:49:12;;;;;;;2.92;0.77;;;11.50;99.90;;;;;;5052478;28;20023;-58
2021/04/11 00:51:39;;;;;;;1.27;0.55;;;11.60;99.90;;;;;;5066877;28;20095;-59
2021/04/11 00:54:07;;;;;;;0.90;0.63;;;11.70;99.90;;;;;;5067564;28;20383;-59
2021/04/11 00:56:35;;;;;;;1.05;0.60;;;11.80;99.90;;;;;;5066728;28;20555;-59
2021/04/11 00:59:03;;;;;;;2.28;1.08;;;11.70;99.90;;;;;;5048509;28;20051;-59
2021/04/11 01:01:30;;;;;;;4.22;0.85;;;11.60;99.90;;;;;;5066551;28;20495;-58
2021/04/11 01:03:56;;;;;;;1.88;0.70;;;11.50;99.90;;;;;;5067325;28;20107;-59
2021/04/11 01:06:33;;;;;;;0.93;0.60;;;11.30;99.90;;;;;;5056946;28;20021;-59
2021/04/11 01:09:08;;;;;;;0.82;0.60;;;11.60;99.90;;;;;;5046610;28;20692;-59
2021/04/11 01:11:35;;;;;;;0.95;0.50;;;11.80;99.90;;;;;;5047231;28;20415;-58
2021/04/11 01:14:03;;;;;;;0.82;0.52;;;11.90;99.90;;;;;;5047010;28;20060;-58
2021/04/11 01:16:30;;;;;;;3.33;0.80;;;12.00;99.90;;;;;;5046728;28;20061;-58
2021/04/11 01:18:56;;;;;;;1.52;0.60;;;11.90;99.90;;;;;;5046063;28;20515;-58
2021/04/11 01:21:40;;;;;;;0.68;0.40;;;11.80;99.90;;;;;;5045756;28;20025;-58
2021/04/11 01:24:05;;;;;;;1.13;0.65;;;11.70;99.90;;;;;;5051786;28;20029;-58
2021/04/11 01:26:33;;;;;;;0.93;0.52;;;11.60;99.90;;;;;;5066390;28;20525;-58
2021/04/11 01:29:01;;;;;;;0.90;0.70;;;11.70;99.90;;;;;;5066749;28;20030;-58
2021/04/11 01:31:31;;;;;;;0.93;0.60;;;11.30;99.90;;;;;;5066431;28;20100;-58
2021/04/11 01:33:58;;;;;;;1.17;0.73;;;11.60;99.90;;;;;;5061850;28;20112;-59
2021/04/11 01:36:28;;;;;;;2.05;0.75;;;11.60;99.90;;;;;;5046472;28;20045;-59
2021/04/11 01:38:55;;;;;;;0.88;0.70;;;11.40;99.90;;;;;;5046791;28;20562;-58
2021/04/11 01:41:36;;;;;;;0.55;0.50;;;11.10;99.90;;;;;;5045379;28;20286;-58
2021/04/11 01:44:04;;;;;;;2.67;0.80;;;11.20;99.90;;;;;;5046117;28;20044;-57
2021/04/11 01:46:30;;;;;;;1.65;0.80;;;11.10;99.90;;;;;;5050556;28;20032;-58
2021/04/11 01:48:57;;;;;;;0.80;0.70;;;11.40;99.90;;;;;;5066623;28;20016;-57
2021/04/11 01:51:30;;;;;;;0.82;0.65;;;11.30;99.90;;;;;;5066561;28;20049;-58
2021/04/11 01:53:59;;;;;;;1.17;0.73;;;11.30;99.90;;;;;;5066973;28;20020;-58
2021/04/11 01:56:26;;;;;;;1.45;0.60;;;11.10;99.90;;;;;;5066436;28;20514;-58
2021/04/11 01:58:52;;;;;;;1.02;0.57;;;11.10;99.90;;;;;;5066718;28;20024;-58
2021/04/11 02:01:30;;;;;;;1.38;0.60;;;11.30;99.90;;;;;;5066339;28;20029;-58
2021/04/11 02:04:03;;;;;;;0.68;0.68;;;11.40;99.90;;;;;;5066518;28;20016;-58
2021/04/11 02:06:32;;;;;;;0.90;0.60;;;11.30;99.90;;;;;;5066478;28;20107;-58
2021/04/11 02:09:11;;;;;;;0.50;0.50;;;11.30;99.90;;;;;;5066142;28;20075;-58
2021/04/11 02:11:38;;;;;;;1.50;0.50;;;11.10;99.90;;;;;;5066031;28;20020;-58
2021/04/11 02:14:05;;;;;;;1.30;0.55;;;11.10;99.90;;;;;;5066566;28;20032;-57
2021/04/11 02:16:33;;;;;;;1.55;0.80;;;11.30;99.90;;;;;;5066347;28;20028;-57
2021/04/11 02:19:15;;;;;;;0.45;0.32;;;11.50;99.90;;;;;;5066149;28;20097;-59
2021/04/11 02:21:46;;;;;;;0.93;0.63;;;11.50;99.90;;;;;;5065697;28;20032;-57
2021/04/11 02:24:13;;;;;;;0.98;0.50;;;11.40;99.90;;;;;;5065477;28;20414;-58
2021/04/11 02:26:41;;;;;;;0.88;0.65;;;11.50;99.90;;;;;;5065995;28;20848;-58
2021/04/11 02:29:09;;;;;;;1.65;0.52;;;11.20;99.90;;;;;;5066429;28;20421;-58
2021/04/11 02:31:35;;;;;;;0.80;0.50;;;11.30;99.90;;;;;;5065899;28;20033;-58
2021/04/11 02:34:11;;;;;;;0.40;0.30;;;11.30;99.90;;;;;;5066034;28;20291;-58
2021/04/11 02:37:05;;;;;;;1.05;0.43;;;11.30;99.90;;;;;;5066120;28;20054;-57
2021/04/11 02:39:34;;;;;;;1.45;0.60;;;11.10;99.90;;;;;;5065063;28;20449;-58
2021/04/11 02:42:04;;;;;;;1.70;0.70;;;11.10;99.90;;;;;;5064871;28;20025;-58
2021/04/11 02:44:35;;;;;;;1.05;0.60;;;10.90;99.90;;;;;;5065812;28;20540;-58
2021/04/11 02:47:00;;;;;;;0.60;0.60;;;10.90;99.90;;;;;;5065613;28;20091;-58
2021/04/11 02:49:26;;;;;;;0.55;0.50;;;10.90;99.90;;;;;;5065425;28;20032;-57
2021/04/11 02:51:54;;;;;;;0.90;0.43;;;10.90;99.90;;;;;;5065852;28;20483;-57
2021/04/11 02:54:22;;;;;;;0.55;0.50;;;11.00;99.90;;;;;;5065595;28;20054;-58
2021/04/11 02:56:48;;;;;;;0.40;0.30;;;10.90;99.90;;;;;;5066493;28;20032;-57
2021/04/11 02:59:15;;;;;;;0.60;0.50;;;10.90;99.90;;;;;;5066157;28;20059;-58
2021/04/11 03:01:48;;;;;;;0.60;0.60;;;10.80;99.90;;;;;;5065257;28;20409;-58
2021/04/11 03:04:16;;;;;;;0.47;0.40;;;11.00;99.90;;;;;;5064106;28;20024;-58
2021/04/11 03:06:51;;;;;;;1.40;0.50;;;10.90;99.90;;;;;;5066090;28;20406;-58
2021/04/11 03:09:23;;;;;;;0.65;0.40;;;10.60;99.90;;;;;;5063879;28;20468;-58
2021/04/11 03:11:53;;;;;;;1.20;0.50;;;10.90;99.90;;;;;;5065130;28;20077;-58
2021/04/11 03:14:23;;;;;;;1.30;0.60;;;11.20;99.90;;;;;;5064894;28;20044;-57
2021/04/11 03:16:49;;;;;;;1.90;0.60;;;11.20;99.90;;;;;;5065085;28;20316;-58
2021/04/11 03:19:21;;;;;;;1.10;0.50;;;11.20;99.90;;;;;;5063744;28;20104;-58
2021/04/11 03:21:48;;;;;;;0.93;0.60;;;11.00;99.90;;;;;;5064799;28;20498;-58
2021/04/11 03:24:14;;;;;;;0.93;0.50;;;10.90;99.90;;;;;;5065314;28;20025;-57
2021/04/11 03:26:40;;;;;;;1.30;0.52;;;10.80;99.90;;;;;;5064823;28;20025;-58
2021/04/11 03:29:11;;;;;;;1.05;0.60;;;10.90;99.90;;;;;;5064858;28;20035;-58
2021/04/11 03:32:02;;;;;;;0.77;0.50;;;10.70;99.90;;;;;;5064629;28;20396;-58
2021/04/11 03:34:31;;;;;;;1.27;0.50;;;10.40;99.90;;;;;;5063139;28;20478;-58
2021/04/11 03:37:00;;;;;;;0.73;0.60;;;10.40;99.90;;;;;;5064809;28;20025;-58
2021/04/11 03:39:27;;;;;;;0.90;0.73;;;10.60;99.90;;;;;;5064275;28;20116;-58
2021/04/11 03:41:55;;;;;;;1.85;0.40;;;10.40;99.90;;;;;;5065071;28;20023;-57
2021/04/11 03:44:24;;;;;;;0.80;0.60;;;10.70;99.90;;;;;;5064522;28;20111;-58
2021/04/11 03:47:11;;;;;;;1.17;0.60;;;10.50;99.90;;;;;;5064943;28;20016;-58
2021/04/11 03:49:52;;;;;;;0.55;0.40;;;10.40;99.90;;;;;;5064091;28;20445;-58
2021/04/11 03:52:27;;;;;;;0.47;0.47;;;10.50;99.90;;;;;;5064438;28;20218;-58
2021/04/11 03:54:54;;;;;;;1.52;0.50;;;10.50;99.90;;;;;;5065259;28;20545;-58
2021/04/11 03:57:32;;;;;;;0.50;0.50;;;10.60;99.90;;;;;;5064198;28;20079;-58
2021/04/11 04:00:10;;;;;;;0.47;0.47;;;10.50;99.90;;;;;;5064213;28;20037;-58
2021/04/11 04:02:43;;;;;;;0.77;0.63;;;10.60;99.90;;;;;;5064317;28;20506;-57
2021/04/11 04:05:12;;;;;;;0.57;0.57;;;10.40;99.90;;;;;;5064337;28;20032;-57
2021/04/11 04:07:50;;;;;;;1.30;0.60;;;10.70;99.90;;;;;;5064072;28;20025;-58
2021/04/11 04:10:20;;;;;;;0.70;0.50;;;10.70;99.90;;;;;;5064709;28;20032;-57
2021/04/11 04:13:13;;;;;;;1.00;0.43;;;10.70;99.90;;;;;;5064935;28;20025;-58
2021/04/11 04:15:45;;;;;;;1.35;0.43;;;10.90;99.90;;;;;;5064581;28;20115;-58
2021/04/11 04:18:44;;;;;;;0.95;0.50;;;11.00;99.90;;;;;;5064357;28;20384;-58
2021/04/11 04:21:15;;;;;;;1.17;0.60;;;11.20;99.90;;;;;;5063425;28;20054;-58
2021/04/11 04:23:49;;;;;;;2.35;0.80;;;11.30;99.90;;;;;;5064828;28;20577;-57
2021/04/11 04:26:34;;;;;;;1.05;0.50;;;11.20;99.90;;;;;;5064625;28;20494;-57
2021/04/11 04:29:14;;;;;;;0.88;0.40;;;11.30;99.90;;;;;;5064300;28;20388;-58
2021/04/11 04:32:23;;;;;;;1.27;0.50;;;10.90;99.90;;;;;;5064608;28;20029;-58
2021/04/11 04:35:00;;;;;;;0.68;0.60;;;11.10;99.90;;;;;;5064638;28;20495;-58
2021/04/11 04:37:52;;;;;;;0.88;0.50;;;10.90;99.90;;;;;;5065343;28;20119;-58
2021/04/11 04:40:29;;;;;;;0.52;0.40;;;10.90;99.90;;;;;;5063051;28;20037;-58
2021/04/11 04:43:01;;;;;;;0.60;0.60;;;10.70;99.90;;;;;;5065178;28;20104;-57
2021/04/11 04:45:39;;;;;;;0.82;0.50;;;10.60;99.90;;;;;;5064547;28;20017;-58
2021/04/11 04:48:13;;;;;;;1.65;0.40;;;10.60;99.90;;;;;;5064177;28;20043;-58
2021/04/11 04:51:01;;;;;;;1.00;0.60;;;10.60;99.90;;;;;;5064119;28;20426;-57
2021/04/11 04:53:46;;;;;;;1.08;0.50;;;10.40;99.90;;;;;;5064348;28;20032;-58
2021/04/11 04:56:19;;;;;;;2.60;0.90;;;10.40;99.90;;;;;;5064285;28;20399;-58
2021/04/11 04:58:57;;;;;;;0.52;0.50;;;10.50;99.90;;;;;;5064364;28;20040;-58
2021/04/11 05:01:39;;;;;;;0.50;0.45;;;10.60;99.90;;;;;;5064993;28;20020;-57
2021/04/11 05:04:16;;;;;;;0.90;0.43;;;10.70;99.90;;;;;;5062602;28;20324;-57
2021/04/11 05:06:47;;;;;;;0.52;0.50;;;10.80;99.90;;;;;;5064556;28;20048;-58
2021/04/11 05:09:36;;;;;;;0.73;0.73;;;10.50;99.90;;;;;;5061674;28;20033;-57
2021/04/11 05:12:08;;;;;;;0.40;0.40;;;10.50;99.90;;;;;;5063264;28;20467;-58
2021/04/11 05:14:58;;;;;;;1.13;0.50;;;10.50;99.90;;;;;;5063994;28;20056;-58
2021/04/11 05:17:29;;;;;;;0.85;0.50;;;10.50;99.90;;;;;;5065121;28;20498;-58
2021/04/11 05:20:17;;;;;;;0.63;0.40;;;10.60;99.90;;;;;;5067398;28;20084;-58
2021/04/11 05:23:18;;;;;;;0.93;0.45;;;10.70;99.90;;;;;;5067816;28;20491;-57
2021/04/11 05:25:56;;;;;;;0.98;0.50;;;10.80;99.90;;;;;;5067706;28;20070;-58
2021/04/11 05:28:40;;;;;;;0.77;0.50;;;10.80;99.90;;;;;;5067381;28;20107;-57
2021/04/11 05:31:10;;;;;;;;;;;10.90;99.90;;;;;;5067808;28;20024;-58
2021/04/11 05:33:37;;;;;;;0.70;0.50;;;11.00;99.90;;;;;;5067144;28;19905;-57
2021/04/11 05:36:21;;;;;;;0.63;0.50;;;11.00;99.90;;;;;;5067498;28;20025;-58
2021/04/11 05:39:11;;;;;;;0.93;0.60;;;11.00;99.90;;;;;;5066772;28;20028;-58
2021/04/11 05:41:43;;;;;;;1.10;0.63;;;11.10;99.90;;;;;;5066576;28;20075;-58
2021/04/11 05:44:20;;;;;;;0.80;0.60;;;11.00;99.90;;;;;;5067421;28;20021;-58
2021/04/11 05:47:18;;;;;;;0.73;0.60;;;11.10;99.90;;;;;;5067539;28;20033;-57
2021/04/11 05:49:53;;;;;;;1.08;0.60;;;11.10;99.90;;;;;;5067404;28;20506;-58
2021/04/11 05:52:53;;;;;;;2.92;0.75;;;11.00;99.90;;;;;;5054886;28;20100;-57
2021/04/11 05:55:21;;;;;;;0.82;0.63;;;11.00;99.90;;;;;;5057235;28;20099;-57
2021/04/11 05:57:51;;;;;;;1.02;0.80;;;10.70;99.90;;;;;;5053694;28;20100;-57
2021/04/11 06:00:25;;;;;;;1.23;0.80;;;10.50;99.90;;;;;;5066753;28;20020;-58
2021/04/11 06:02:58;;;;;;;5.00;2.47;;;10.60;99.90;;;;;;5066918;28;20434;-58
2021/04/11 06:05:47;;;;;;;6.15;2.85;;;10.80;99.90;;;;;;5067295;28;20503;-57
2021/04/11 06:08:20;;;;;;;3.15;1.90;;;11.10;99.90;;;;;;5066382;28;20025;-58
2021/04/11 06:11:13;;;;;;;2.42;1.33;;;11.10;99.90;;;;;;5067201;28;20037;-58
2021/04/11 06:13:47;;;;;;;1.77;1.00;;;11.10;99.90;;;;;;5066965;28;20071;-58
2021/04/11 06:16:15;;;;;;;1.23;0.80;;;11.00;99.90;;;;;;5066810;28;20025;-58
2021/04/11 06:18:44;;;;;;;2.42;0.70;;;11.10;99.90;;;;;;5066199;28;20559;-58
2021/04/11 06:22:02;;;;;;;1.27;0.65;;;11.10;99.90;;;;;;5066060;28;20024;-58
2021/04/11 06:24:48;;;;;;;1.00;0.68;;;11.10;99.90;;;;;;5066230;28;20098;-58
2021/04/11 06:27:40;;;;;;;0.70;0.60;;;11.10;99.90;;;;;;5066398;28;20029;-58
2021/04/11 06:30:31;;;;;;;0.63;0.63;;;11.10;99.90;;;;;;5064571;28;20043;-58
2021/04/11 06:33:01;;;;;;;0.52;0.52;;;11.10;99.90;;;;;;5054251;28;20136;-58
2021/04/11 06:35:38;;;;;;;0.60;0.40;;;11.10;99.90;;;;;;5062915;28;20040;-58
2021/04/11 06:38:09;;;;;;;1.05;0.52;;;11.10;99.90;;;;;;5057693;28;20039;-58
2021/04/11 06:40:41;;;;;;;1.13;0.60;;;11.10;99.90;;;;;;5051551;28;20112;-58
2021/04/11 06:43:37;;;;;;;1.50;0.80;;;11.10;99.90;;;;;;5047586;28;20036;-57
2021/04/11 06:46:19;;;;;;;1.60;0.70;;;11.00;99.90;;;;;;5064646;28;20071;-59
2021/04/11 06:49:23;;;;;;;1.55;0.80;;;10.90;99.90;;;;;;5058692;28;20021;-59
2021/04/11 06:52:23;;;;;;;1.10;0.80;;;11.00;99.90;;;;;;5058637;28;20047;-58
2021/04/11 06:54:58;;;;;;;1.77;0.60;;;11.00;99.90;;;;;;5047574;28;20033;-58
2021/04/11 06:57:31;;;;;;;1.08;0.55;;;11.00;99.90;;;;;;5047728;28;20544;-58
2021/04/11 07:00:12;;;;;;;0.73;0.43;;;11.00;99.90;;;;;;5061869;28;20032;-58
2021/04/11 07:02:59;;;;;;;0.80;0.60;;;11.00;99.90;;;;;;5047214;28;20074;-58
2021/04/11 07:05:36;;;;;;;0.90;0.60;;;11.00;99.90;;;;;;5047649;28;20479;-58
2021/04/11 07:08:11;;;;;;;0.60;0.60;;;11.10;99.90;;;;;;5046800;28;20143;-58
2021/04/11 07:11:21;;;;;;;1.85;0.70;;;11.20;99.90;;;;;;5046555;28;20025;-58
2021/04/11 07:14:06;;;;;;;0.75;0.70;;;11.20;99.90;;;;;;5045035;28;20151;-57
2021/04/11 07:16:31;;;;;;;1.35;0.80;;;11.20;99.90;;;;;;5045205;28;20111;-58
2021/04/11 07:19:16;;;;;;;1.25;0.80;;;11.20;99.90;;;;;;5048446;28;20131;-58
2021/04/11 07:22:05;;;;;;;1.63;0.80;;;11.50;99.90;;;;;;5065418;28;20111;-58
2021/04/11 07:24:42;;;;;;;1.42;0.75;;;11.40;99.90;;;;;;5065239;28;20024;-59
2021/04/11 07:27:22;;;;;;;2.05;0.88;;;11.40;99.90;;;;;;5064918;28;20538;-58
2021/04/11 07:30:11;;;;;;;0.75;0.60;;;11.40;99.90;;;;;;5065093;28;20031;-58
2021/04/11 07:33:16;;;;;;;1.30;0.82;;;11.60;99.90;;;;;;5050630;28;20065;-58
2021/04/11 07:36:03;;;;;;;1.35;0.82;;;11.50;99.90;;;;;;5062481;28;20128;-58
2021/04/11 07:38:54;;;;;;;2.20;0.90;;;11.70;99.90;;;;;;5063895;28;20036;-58
2021/04/11 07:41:38;;;;;;;1.73;1.05;;;11.80;99.90;;;;;;5045230;28;20541;-58
2021/04/11 07:44:13;;;;;;;1.83;1.00;;;11.80;99.90;;;;;;5046774;28;20032;-58
2021/04/11 07:46:38;;;;;;;1.00;0.80;;;12.00;99.90;;;;;;5051090;28;20017;-58
2021/04/11 07:49:22;;;;;;;0.40;0.40;;;12.40;99.90;;;;;;5049578;28;20036;-58
2021/04/11 07:52:18;;;;;;;0.80;0.70;;;12.60;99.90;;;;;;5057684;28;20463;-58
2021/04/11 07:55:19;;;;;;;0.90;0.75;;;12.70;99.90;;;;;;5046090;28;20044;-58
2021/04/11 07:57:52;;;;;;;1.23;0.60;;;12.70;99.90;;;;;;5048288;28;20029;-58
2021/04/11 08:00:17;;;;;;;0.73;0.60;;;12.70;99.90;;;;;;5053156;28;20029;-58
2021/04/11 08:02:58;;;;;;;1.67;0.68;;;12.60;99.90;;;;;;5046087;28;20404;-58
2021/04/11 08:05:48;;;;;;;0.90;0.60;;;12.60;99.90;;;;;;5046135;28;20040;-58
2021/04/11 08:08:26;;;;;;;1.25;0.50;;;12.50;99.90;;;;;;5057530;28;20101;-58
2021/04/11 08:10:54;;;;;;;0.98;0.77;;;12.60;99.90;;;;;;5065399;28;20126;-58
2021/04/11 08:13:48;;;;;;;0.50;0.50;;;12.60;99.90;;;;;;5065219;28;20052;-58
2021/04/11 08:16:42;;;;;;;1.13;0.70;;;12.60;99.90;;;;;;5065831;28;20108;-58
2021/04/11 08:19:32;;;;;;;0.82;0.65;;;12.80;99.90;;;;;;5065359;28;20089;-59
2021/04/11 08:22:20;;;;;;;1.75;0.50;;;12.70;99.90;;;;;;5066378;28;20050;-58
2021/04/11 08:25:07;;;;;;;0.50;0.50;;;12.80;99.90;;;;;;5065656;28;20021;-58
2021/04/11 08:27:54;;;;;;;0.68;0.50;;;12.80;99.90;;;;;;5059711;28;20094;-58
2021/04/11 08:30:48;;;;;;;1.00;0.50;;;12.80;99.90;;;;;;5044961;28;20108;-58
2021/04/11 08:33:35;;;;;;;0.93;0.60;;;12.90;99.90;;;;;;5058065;28;20467;-59
2021/04/11 08:36:33;;;;;;;0.60;0.60;;;13.10;99.90;;;;;;5065353;28;20086;-58
2021/04/11 08:39:01;;;;;;;0.30;0.30;;;13.20;99.90;;;;;;5065579;28;20021;-59
2021/04/11 08:42:05;;;;;;;0.30;0.30;;;13.20;99.90;;;;;;5065822;28;20040;-59
2021/04/11 08:44:58;;;;;;;0.70;0.32;;;13.20;99.90;;;;;;5059602;28;20028;-58
2021/04/11 08:47:45;;;;;;;0.80;0.43;;;13.20;99.90;;;;;;5056252;28;20056;-57
2021/04/11 08:50:27;;;;;;;0.63;0.40;;;13.20;99.90;;;;;;5045395;28;20033;-58
2021/04/11 08:53:10;;;;;;;0.75;0.50;;;13.20;99.90;;;;;;5059945;28;20091;-58
2021/04/11 08:55:44;;;;;;;0.70;0.40;;;13.30;99.90;;;;;;5068281;28;20138;-58
2021/04/11 08:58:28;;;;;;;1.50;0.52;;;13.30;99.90;;;;;;5053734;28;20153;-58
2021/04/11 09:01:15;;;;;;;0.43;0.40;;;13.30;99.90;;;;;;5058136;28;20031;-58
2021/04/11 09:03:49;;;;;;;0.70;0.40;;;13.30;99.90;;;;;;5064168;28;20478;-58
2021/04/11 09:06:31;;;;;;;;;;;13.40;99.90;;;;;;5057915;28;20033;-58
2021/04/11 09:09:09;;;;;;;0.52;0.40;;;13.40;99.90;;;;;;5067490;28;19919;-58
2021/04/11 09:11:49;;;;;;;1.08;0.60;;;13.50;99.90;;;;;;5063674;28;20081;-59
2021/04/11 09:14:40;;;;;;;0.80;0.55;;;13.50;99.90;;;;;;5052759;28;20039;-59
2021/04/11 09:17:09;;;;;;;1.27;0.40;;;13.50;99.90;;;;;;5059362;28;20106;-58
2021/04/11 09:20:12;;;;;;;2.42;0.40;;;13.50;99.90;;;;;;5058578;28;20039;-59
2021/04/11 09:22:57;;;;;;;0.30;0.30;;;13.50;99.90;;;;;;5068202;28;20051;-58
2021/04/11 09:25:27;;;;;;;1.95;1.00;;;13.40;99.90;;;;;;5064185;28;20115;-59
2021/04/11 09:28:08;;;;;;;0.95;0.60;;;13.00;99.90;;;;;;5053638;28;20086;-60
2021/04/11 09:30:51;;;;;;;2.53;0.90;;;12.80;99.90;;;;;;5054559;28;20055;-60
2021/04/11 09:33:24;;;;;;;1.58;0.70;;;12.70;99.90;;;;;;5058828;28;20087;-59
2021/04/11 09:35:58;;;;;;;0.95;0.50;;;12.70;99.90;;;;;;5054506;28;20079;-59
2021/04/11 09:38:30;;;;;;;1.77;0.52;;;12.80;99.90;;;;;;5056793;28;20028;-58
2021/04/11 09:41:02;;;;;;;1.92;0.40;;;13.20;99.90;;;;;;5057391;28;20029;-58
2021/04/11 09:43:49;;;;;;;0.57;0.52;;;13.20;99.90;;;;;;5062108;28;20479;-59
2021/04/11 09:46:29;;;;;;;1.48;0.73;;;13.40;99.90;;;;;;5053402;28;20039;-60
2021/04/11 09:49:36;;;;;;;0.80;0.50;;;13.60;99.90;;;;;;5068379;28;20043;-58
2021/04/11 09:52:18;;;;;;;0.40;0.32;;;13.60;99.90;;;;;;5065572;28;20089;-58
2021/04/11 09:55:09;;;;;;;0.60;0.40;;;13.70;99.90;;;;;;5046655;28;20074;-58
2021/04/11 09:58:10;;;;;;;0.30;0.30;;;13.70;99.90;;;;;;5060774;28;20675;-58
2021/04/11 10:00:56;;;;;;;1.10;0.52;;;13.80;99.90;;;;;;5046965;28;20041;-59
2021/04/11 10:03:33;;;;;;;1.52;0.50;;;13.70;99.90;;;;;;5046739;28;20159;-59
2021/04/11 10:06:07;;;;;;;2.60;0.40;;;13.80;99.90;;;;;;5046777;28;20541;-60
2021/04/11 10:08:54;;;;;;;1.95;0.40;;;13.80;99.90;;;;;;5058568;28;20090;-59
2021/04/11 10:11:49;;;;;;;0.90;0.60;;;13.90;99.90;;;;;;5046999;28;20479;-58
2021/04/11 10:14:27;;;;;;;0.65;0.50;;;13.90;99.90;;;;;;5047340;28;20021;-59
2021/04/11 10:17:13;;;;;;;0.50;0.40;;;13.80;99.90;;;;;;5050556;28;20040;-59
2021/04/11 10:19:58;;;;;;;0.73;0.57;;;13.90;99.90;;;;;;5046805;28;20060;-59
2021/04/11 10:22:36;;;;;;;0.75;0.40;;;13.90;99.90;;;;;;5063959;28;20407;-60
2021/04/11 10:25:23;;;;;;;1.00;0.60;;;14.00;99.90;;;;;;5056688;28;20024;-59
2021/04/11 10:28:01;;;;;;;0.73;0.60;;;14.00;99.90;;;;;;5066663;28;20475;-58
2021/04/11 10:30:27;;;;;;;0.90;0.63;;;14.10;99.90;;;;;;5067686;28;20398;-60
2021/04/11 10:33:08;;;;;;;0.80;0.60;;;14.10;99.90;;;;;;5046816;28;20075;-59
2021/04/11 10:35:50;;;;;;;0.60;0.50;;;14.30;99.90;;;;;;5061016;28;20043;-59
2021/04/11 10:38:25;;;;;;;1.05;0.52;;;14.40;99.90;;;;;;5052108;28;20043;-58
2021/04/11 10:41:11;;;;;;;0.90;0.52;;;14.50;99.90;;;;;;5056261;28;20391;-58
2021/04/11 10:44:04;;;;;;;0.60;0.47;;;14.60;99.90;;;;;;5056720;28;20065;-58
2021/04/11 10:46:36;;;;;;;1.17;0.85;;;14.70;99.90;;;;;;5051295;28;20167;-59
2021/04/11 10:49:25;;;;;;;0.88;0.60;;;14.80;99.90;;;;;;5049114;28;20029;-60
2021/04/11 10:52:24;;;;;;;2.10;0.80;;;14.90;99.90;;;;;;5052615;28;20406;-60
2021/04/11 10:55:17;;;;;;;0.63;0.52;;;14.90;99.90;;;;;;5059919;28;20032;-59
2021/04/11 10:57:56;;;;;;;0.50;0.50;;;14.90;99.90;;;;;;5046805;28;20305;-60
2021/04/11 11:00:23;;;;;;;0.88;0.30;;;14.90;99.90;;;;;;5063363;28;20039;-60
2021/04/11 11:03:16;;;;;;;0.75;0.40;;;14.90;99.90;;;;;;5057365;28;20104;-60
2021/04/11 11:06:06;;;;;;;0.68;0.60;;;15.00;99.90;;;;;;5046827;28;20108;-59
2021/04/11 11:09:02;;;;;;;0.95;0.50;;;15.10;99.90;;;;;;5045581;28;20056;-59
2021/04/11 11:11:51;;;;;;;1.52;0.40;;;15.20;99.90;;;;;;5045902;28;20032;-58
2021/04/11 11:15:01;;;;;;;1.52;0.43;;;15.20;99.90;;;;;;5046299;28;20025;-59
2021/04/11 11:17:48;;;;;;;1.10;0.40;;;15.30;99.90;;;;;;5053555;28;20040;-60
2021/04/11 11:20:17;;;;;;;0.70;0.50;;;15.40;99.90;;;;;;5054016;28;20497;-59
2021/04/11 11:23:16;;;;;;;0.55;0.43;;;15.30;99.90;;;;;;5061115;28;20029;-59
2021/04/11 11:25:57;;;;;;;0.80;0.65;;;15.30;99.90;;;;;;5067455;28;20032;-60
2021/04/11 11:28:25;;;;;;;0.75;0.50;;;15.60;99.90;;;;;;5062435;28;20025;-59
2021/04/11 11:31:15;;;;;;;0.50;0.40;;;15.60;99.90;;;;;;5057534;28;20449;-60
2021/04/11 11:33:51;;;;;;;0.85;0.50;;;15.40;99.90;;;;;;5048344;28;20029;-59
2021/04/11 11:36:36;;;;;;;1.40;0.50;;;15.20;99.90;;;;;;5066205;28;20395;-59
2021/04/11 11:39:16;;;;;;;2.08;0.50;;;15.00;99.90;;;;;;5052442;28;20028;-58
2021/04/11 11:42:18;;;;;;;0.40;0.40;;;14.90;99.90;;;;;;5052979;28;20119;-59
2021/04/11 11:45:02;;;;;;;0.75;0.52;;;15.00;99.90;;;;;;5045603;28;20046;-60
2021/04/11 11:47:51;;;;;;;1.70;0.65;;;14.90;99.90;;;;;;5046161;28;20089;-60
2021/04/11 11:50:20;;;;;;;2.08;0.70;;;15.00;99.90;;;;;;5056789;28;20094;-59
2021/04/11 11:52:55;;;;;;;0.40;0.40;;;15.00;99.90;;;;;;5059626;28;20032;-58
2021/04/11 11:55:28;;;;;;;1.92;1.08;;;14.90;99.90;;;;;;5050057;28;20031;-60
2021/04/11 11:58:13;;;;;;;0.70;0.55;;;14.90;99.90;;;;;;5062950;28;20506;-59
2021/04/11 12:00:43;;;;;;;1.23;0.70;;;14.90;99.90;;;;;;5060902;28;20471;-58
2021/04/11 12:03:34;;;;;;;1.10;0.40;;;15.10;99.90;;;;;;5061637;28;20111;-60
2021/04/11 12:06:11;;;;;;;0.88;0.50;;;15.20;99.90;;;;;;5067247;28;20103;-59
2021/04/11 12:09:15;;;;;;;0.70;0.60;;;15.20;99.90;;;;;;5066206;28;20042;-58
2021/04/11 12:11:52;;;;;;;2.53;0.60;;;15.20;99.90;;;;;;5066757;28;20044;-59
2021/04/11 12:14:20;;;;;;;2.42;0.50;;;15.20;99.90;;;;;;5066395;28;20028;-59
2021/04/11 12:16:59;;;;;;;0.47;0.40;;;15.20;99.90;;;;;;5060872;28;20033;-58
2021/04/11 12:19:39;;;;;;;0.40;0.40;;;15.10;99.90;;;;;;5046119;28;20032;-59
2021/04/11 12:22:23;;;;;;;0.50;0.40;;;15.00;99.90;;;;;;5046563;28;20075;-58
2021/04/11 12:24:52;;;;;;;0.45;0.40;;;14.90;99.90;;;;;;5065103;28;20107;-59
2021/04/11 12:27:26;;;;;;;0.85;0.30;;;15.00;99.90;;;;;;5054082;28;20038;-58
2021/04/11 12:29:53;;;;;;;;;;;15.00;99.90;;;;;;5064831;28;20067;-59
2021/04/11 12:32:35;;;;;;;0.30;0.30;;;15.10;99.90;;;;;;5065585;28;20370;-59
2021/04/11 12:35:20;;;;;;;0.50;0.32;;;15.10;99.90;;;;;;5059932;28;20032;-58
2021/04/11 12:37:54;;;;;;;0.40;0.40;;;15.20;99.90;;;;;;5069306;28;20021;-59
2021/04/11 12:40:37;;;;;;;0.52;0.30;;;15.20;99.90;;;;;;5057074;28;20028;-58
2021/04/11 12:43:09;;;;;;;1.30;0.52;;;15.20;99.90;;;;;;5049986;28;20079;-59
2021/04/11 12:45:45;;;;;;;0.43;0.30;;;15.20;99.90;;;;;;5058310;28;20039;-60
2021/04/11 12:48:29;;;;;;;0.80;0.47;;;15.10;99.90;;;;;;5062413;28;20035;-59
2021/04/11 12:51:07;;;;;;;0.50;0.30;;;15.00;99.90;;;;;;5058504;28;20630;-59
2021/04/11 12:53:42;;;;;;;1.45;0.30;;;15.00;99.90;;;;;;5049052;28;20036;-59
2021/04/11 12:56:14;;;;;;;1.60;0.30;;;15.00;99.90;;;;;;5052329;28;20111;-59
2021/04/11 12:58:45;;;;;;;0.22;0.22;;;15.10;99.90;;;;;;5057677;28;20471;-59
2021/04/11 13:01:12;;;;;;;0.50;0.50;;;15.10;99.90;;;;;;5048208;28;20124;-59
2021/04/11 13:03:53;;;;;;;1.70;0.55;;;15.20;99.90;;;;;;5062094;28;20075;-60
2021/04/11 13:06:50;;;;;;;0.38;0.35;;;15.20;99.90;;;;;;5047555;28;20029;-59
2021/04/11 13:09:37;;;;;;;0.40;0.20;;;15.20;99.90;;;;;;5056863;28;20137;-61
2021/04/11 13:12:28;;;;;;;0.50;0.30;;;15.20;99.90;;;;;;5060205;28;20554;-60
2021/04/11 13:15:12;;;;;;;2.03;0.40;;;15.10;99.90;;;;;;5053064;28;20102;-59
2021/04/11 13:18:00;;;;;;;0.50;0.45;;;15.10;99.90;;;;;;5062969;28;20056;-59
2021/04/11 13:20:33;;;;;;;0.57;0.40;;;15.10;99.90;;;;;;5048621;28;20040;-60
2021/04/11 13:23:18;;;;;;;0.30;0.30;;;15.10;99.90;;;;;;5048560;28;20013;-60
2021/04/11 13:26:01;;;;;;;0.55;0.40;;;15.00;99.90;;;;;;5049198;28;20055;-59
2021/04/11 13:28:48;;;;;;;2.00;0.40;;;15.00;99.90;;;;;;5060132;28;20042;-59
2021/04/11 13:31:26;;;;;;;0.75;0.52;;;15.00;99.90;;;;;;5049057;28;20345;-59
2021/04/11 13:33:54;;;;;;;0.82;0.60;;;14.90;99.90;;;;;;5054811;28;20033;-60
2021/04/11 13:36:29;;;;;;;2.05;0.93;;;15.00;99.90;;;;;;5048327;28;20036;-60
2021/04/11 13:39:00;;;;;;;0.73;0.50;;;15.00;99.90;;;;;;5046891;28;20040;-59
2021/04/11 13:41:56;;;;;;;0.65;0.40;;;15.00;99.90;;;;;;5047586;28;20090;-60
2021/04/11 13:44:49;;;;;;;1.13;0.52;;;15.00;99.90;;;;;;5054329;28;20085;-61
2021/04/11 13:47:37;;;;;;;0.98;0.50;;;15.00;99.90;;;;;;5064063;28;20064;-60